Rechercher aéroport 
image banner adimage banner adimage banner ad
image banner ad

56CL - Cyr Aviation

Situé à Blythe, United States

ICAO - 56CL, IATA -

Données fournies par Airmate  

Information générale

Coordonnées: N33°35'31" W114°36'20"
Élévation : 263 feet MSL.
Variation magnétique : 13° East
Voir autres Aéroports à California

Données opérationnelles

Special qualification required
Heure actuelle UTC:
Heure actuelle locale:
Météo à : KBLH - Blythe ( 11 km )
METAR: KBLH 251252Z AUTO 13003KT 10SM CLR 29/19 A2989 RMK AO2 SLP115 T02890194
TAF: KBLH 251120Z 2512/2612 17009KT P6SM SCT080 BKN100 OVC150 FM251700 16013KT P6SM VCSH SCT080 BKN120 FM252300 17010KT P6SM SCT080 BKN120
Voir NOTAMs / SUP AIP / TFR affectant cet aéroport [VIEW]
Fréquences de communication: [VIEW]

Pistes:

Identifiant RWYQFULongueur (ft)Largeur (ft)SurfaceLDA (ft)
16240050ASPH
34240050ASPH

Coordonnées de l'aéroport

Adresse: Blythe United States

Vue satellite de 56CL